createdAt,value
2018-11-01T00:00:20.537Z,15.02
2018-11-01T00:02:49.682Z,14.95
2018-11-01T00:05:18.698Z,14.94
2018-11-01T00:07:47.749Z,14.93
2018-11-01T00:10:16.645Z,14.84
2018-11-01T00:12:45.739Z,14.82
2018-11-01T00:15:15.867Z,14.84
2018-11-01T00:17:44.838Z,14.85
2018-11-01T00:20:14.535Z,14.87
2018-11-01T00:22:44.159Z,14.95
2018-11-01T00:25:13.942Z,15.10
2018-11-01T00:27:43.434Z,15.25
2018-11-01T00:30:12.431Z,15.34
2018-11-01T00:32:41.511Z,15.31
2018-11-01T00:35:10.487Z,15.39
2018-11-01T00:37:39.407Z,15.43
2018-11-01T00:40:11.622Z,15.44
2018-11-01T00:42:40.513Z,15.32
2018-11-01T00:45:10.230Z,15.25
2018-11-01T00:47:40.160Z,15.24
2018-11-01T00:50:11.849Z,15.22
2018-11-01T00:52:41.474Z,15.31
2018-11-01T00:55:11.501Z,15.36
2018-11-01T00:57:41.372Z,15.32
2018-11-01T01:00:13.734Z,15.25
2018-11-01T01:02:42.661Z,15.24
2018-11-01T01:05:12.353Z,15.27
2018-11-01T01:07:41.415Z,15.33
2018-11-01T01:10:14.212Z,15.28
2018-11-01T01:12:44.343Z,15.26
2018-11-01T01:15:13.303Z,15.10
2018-11-01T01:17:42.134Z,15.00
2018-11-01T01:20:14.757Z,15.11
2018-11-01T01:22:44.979Z,14.98
2018-11-01T01:25:16.035Z,14.78
2018-11-01T01:27:44.968Z,14.56
2018-11-01T01:30:15.967Z,14.45
2018-11-01T01:32:45.443Z,14.41
2018-11-01T01:35:15.226Z,14.42
2018-11-01T01:37:44.494Z,14.38
2018-11-01T01:40:13.444Z,14.39
2018-11-01T01:42:47.460Z,14.43
2018-11-01T01:45:16.578Z,14.60
2018-11-01T01:47:45.489Z,14.51
2018-11-01T01:50:15.559Z,14.50
2018-11-01T01:52:45.226Z,14.53
2018-11-01T01:55:14.194Z,14.56
2018-11-01T01:57:43.131Z,14.59
2018-11-01T02:00:19.942Z,14.75
2018-11-01T02:02:50.258Z,14.89
2018-11-01T02:05:19.216Z,14.84
2018-11-01T02:07:48.141Z,14.90
2018-11-01T02:10:17.914Z,15.09
2018-11-01T02:12:46.828Z,15.11
2018-11-01T02:15:17.345Z,15.16
2018-11-01T02:17:46.437Z,15.26
2018-11-01T02:20:16.512Z,15.32
2018-11-01T02:22:45.764Z,15.27
2018-11-01T02:25:14.917Z,15.26
2018-11-01T02:27:48.871Z,15.12
2018-11-01T02:30:18.523Z,14.94
2018-11-01T02:32:47.662Z,14.76
2018-11-01T02:35:17.708Z,14.67
2018-11-01T02:37:47.067Z,14.57
2018-11-01T02:40:16.552Z,14.60
2018-11-01T02:42:45.442Z,14.59
2018-11-01T02:45:15.270Z,14.62
2018-11-01T02:47:44.265Z,14.66
2018-11-01T02:50:13.911Z,14.81
2018-11-01T02:52:42.965Z,14.89
2018-11-01T02:55:11.910Z,15.00
2018-11-01T02:57:40.816Z,15.06
2018-11-01T03:00:11.362Z,15.07
2018-11-01T03:02:40.302Z,15.13
2018-11-01T03:05:10.179Z,15.10
2018-11-01T03:07:41.561Z,15.07
2018-11-01T03:10:12.350Z,15.09
2018-11-01T03:12:41.805Z,15.06
2018-11-01T03:15:12.113Z,15.07
2018-11-01T03:17:41.046Z,15.05
2018-11-01T03:20:10.690Z,15.00
2018-11-01T03:22:39.795Z,14.94
2018-11-01T03:25:09.466Z,15.03
2018-11-01T03:27:38.827Z,14.89
2018-11-01T03:30:08.507Z,14.93
2018-11-01T03:32:37.858Z,15.00
2018-11-01T03:35:07.569Z,15.12
2018-11-01T03:37:36.514Z,15.09
2018-11-01T03:40:06.459Z,15.09
2018-11-01T03:42:35.342Z,15.06
2018-11-01T03:45:04.587Z,15.07
2018-11-01T03:47:33.439Z,15.11
2018-11-01T03:50:02.351Z,15.16
2018-11-01T03:52:31.255Z,15.16
2018-11-01T03:55:00.232Z,15.14
2018-11-01T03:57:29.224Z,14.89
2018-11-01T03:59:58.207Z,14.80
2018-11-01T04:02:27.172Z,14.96
2018-11-01T04:04:56.074Z,14.94
2018-11-01T04:07:25.000Z,15.05
2018-11-01T04:09:53.901Z,15.07
2018-11-01T04:12:22.766Z,15.04
2018-11-01T04:14:51.804Z,15.04
2018-11-01T04:17:20.687Z,15.10
2018-11-01T04:19:49.605Z,15.17
2018-11-01T04:22:19.898Z,15.14
2018-11-01T04:24:48.817Z,15.16
2018-11-01T04:27:17.656Z,15.22
2018-11-01T04:29:46.582Z,15.18
2018-11-01T04:32:15.491Z,15.25
2018-11-01T04:34:44.422Z,15.26
2018-11-01T04:37:13.369Z,15.18
2018-11-01T04:39:42.280Z,15.01
2018-11-01T04:42:11.233Z,15.25
2018-11-01T04:44:40.235Z,15.42
2018-11-01T04:47:09.059Z,15.56
2018-11-01T04:49:38.001Z,15.62
2018-11-01T04:52:07.361Z,15.78
2018-11-01T04:54:36.254Z,15.79
2018-11-01T04:57:05.246Z,15.74
2018-11-01T04:59:34.206Z,15.45
2018-11-01T05:02:03.119Z,15.65
2018-11-01T05:04:32.001Z,15.79
2018-11-01T05:07:00.939Z,15.52
2018-11-01T05:09:29.762Z,15.32
2018-11-01T05:11:58.577Z,15.52
2018-11-01T05:14:27.470Z,15.71
2018-11-01T05:16:56.343Z,15.77
2018-11-01T05:19:25.267Z,15.58
2018-11-01T05:21:54.327Z,15.70
2018-11-01T05:24:23.300Z,15.73
2018-11-01T05:26:52.170Z,15.93
2018-11-01T05:29:21.050Z,16.09
2018-11-01T05:31:49.971Z,16.10
2018-11-01T05:34:18.918Z,16.27
2018-11-01T05:36:47.910Z,16.33
2018-11-01T05:39:16.904Z,16.32
2018-11-01T05:41:45.915Z,16.28
2018-11-01T05:44:14.996Z,16.30
2018-11-01T05:46:43.939Z,16.39
2018-11-01T05:49:12.887Z,16.37
2018-11-01T05:51:41.799Z,16.27
2018-11-01T05:54:10.692Z,16.31
2018-11-01T05:56:41.039Z,16.42
2018-11-01T05:59:09.991Z,16.57
2018-11-01T06:01:42.934Z,16.52
2018-11-01T06:04:11.770Z,16.67
2018-11-01T06:06:40.673Z,16.73
2018-11-01T06:09:10.529Z,16.70
2018-11-01T06:11:39.370Z,16.69
2018-11-01T06:14:08.340Z,16.69
2018-11-01T06:16:37.283Z,17.08
2018-11-01T06:19:06.431Z,16.90
2018-11-01T06:21:35.350Z,17.04
2018-11-01T06:24:04.356Z,16.60
2018-11-01T06:26:33.240Z,16.57
2018-11-01T06:29:02.314Z,16.45
2018-11-01T06:31:31.178Z,16.50
2018-11-01T06:34:00.027Z,16.28
2018-11-01T06:36:28.978Z,16.42
2018-11-01T06:38:58.032Z,16.09
2018-11-01T06:41:26.947Z,16.06
2018-11-01T06:43:55.847Z,16.02
2018-11-01T06:46:24.732Z,16.29
2018-11-01T06:48:53.665Z,16.47
2018-11-01T06:51:22.698Z,16.29
2018-11-01T06:53:51.579Z,16.38
2018-11-01T06:56:20.572Z,16.52
2018-11-01T06:58:49.713Z,16.59
2018-11-01T07:01:18.663Z,16.54
2018-11-01T07:03:47.595Z,16.76
2018-11-01T07:06:16.602Z,16.56
2018-11-01T07:08:45.559Z,16.72
2018-11-01T07:11:14.505Z,16.60
2018-11-01T07:13:43.411Z,16.99
2018-11-01T07:16:12.367Z,16.96
2018-11-01T07:18:41.298Z,17.15
2018-11-01T07:21:10.191Z,17.24
2018-11-01T07:23:39.083Z,17.18
2018-11-01T07:26:08.380Z,17.49
2018-11-01T07:28:37.184Z,17.53
2018-11-01T07:31:06.133Z,17.75
2018-11-01T07:33:36.362Z,18.05
2018-11-01T07:36:05.323Z,18.07
2018-11-01T07:38:34.239Z,18.15
2018-11-01T07:41:03.146Z,18.30
2018-11-01T07:43:32.082Z,18.31
2018-11-01T07:46:00.995Z,18.14
2018-11-01T07:48:30.000Z,18.35
2018-11-01T07:50:58.929Z,18.03
2018-11-01T07:53:27.830Z,18.58
2018-11-01T07:55:56.964Z,18.87
2018-11-01T07:58:26.025Z,19.06
2018-11-01T08:00:54.930Z,18.94
2018-11-01T08:03:23.953Z,19.07
2018-11-01T08:05:53.026Z,19.42
2018-11-01T08:08:21.879Z,19.47
2018-11-01T08:10:50.815Z,19.72
2018-11-01T08:13:20.150Z,19.73
2018-11-01T08:15:49.102Z,20.04
2018-11-01T08:18:18.118Z,19.91
2018-11-01T08:20:47.207Z,19.74
2018-11-01T08:23:16.117Z,19.36
2018-11-01T08:25:45.178Z,18.85
2018-11-01T08:28:16.939Z,18.40
2018-11-01T08:30:45.914Z,18.93
2018-11-01T08:33:14.874Z,19.02
2018-11-01T08:35:45.103Z,19.11
2018-11-01T08:38:14.037Z,19.63
2018-11-01T08:40:42.906Z,19.67
2018-11-01T08:43:11.871Z,20.21
2018-11-01T08:45:40.730Z,20.56
2018-11-01T08:48:09.589Z,20.75
2018-11-01T08:50:38.506Z,20.72
2018-11-01T08:53:07.386Z,20.94
2018-11-01T08:55:36.325Z,21.19
2018-11-01T08:58:07.182Z,21.06
2018-11-01T09:00:36.120Z,21.05
2018-11-01T09:03:05.101Z,21.08
2018-11-01T09:05:35.436Z,21.14
2018-11-01T09:08:04.440Z,21.13
2018-11-01T09:10:34.747Z,21.00
2018-11-01T09:13:03.637Z,21.12
2018-11-01T09:15:32.600Z,21.07
2018-11-01T09:18:04.209Z,20.82
2018-11-01T09:20:33.124Z,20.75
2018-11-01T09:23:02.136Z,20.58
2018-11-01T09:25:31.095Z,20.69
2018-11-01T09:28:00.202Z,20.68
2018-11-01T09:30:29.369Z,20.59
2018-11-01T09:32:58.497Z,20.57
2018-11-01T09:35:27.415Z,20.53
2018-11-01T09:37:56.319Z,20.53
2018-11-01T09:40:28.219Z,20.42
2018-11-01T09:42:57.166Z,20.28
2018-11-01T09:45:26.080Z,20.41
2018-11-01T09:47:55.056Z,20.46
2018-11-01T09:50:23.995Z,20.44
2018-11-01T09:52:53.015Z,20.41
2018-11-01T09:55:22.032Z,20.38
2018-11-01T09:57:50.959Z,20.49
2018-11-01T10:00:19.862Z,20.32
2018-11-01T10:02:48.773Z,20.39
2018-11-01T10:05:17.766Z,20.15
2018-11-01T10:07:46.661Z,19.97
2018-11-01T10:10:15.567Z,20.02
2018-11-01T10:12:44.478Z,20.14
2018-11-01T10:15:14.115Z,20.22
2018-11-01T10:17:43.454Z,20.24
2018-11-01T10:20:13.568Z,20.30
2018-11-01T10:22:42.756Z,20.39
2018-11-01T10:25:13.289Z,20.28
2018-11-01T10:27:42.328Z,19.99
2018-11-01T10:30:14.295Z,19.63
2018-11-01T10:32:45.326Z,19.39
2018-11-01T10:35:14.803Z,19.28
2018-11-01T10:37:43.876Z,19.29
2018-11-01T10:40:15.088Z,19.24
2018-11-01T10:42:44.030Z,19.28
2018-11-01T10:45:12.895Z,19.50
2018-11-01T10:47:41.921Z,19.63
2018-11-01T10:50:14.088Z,19.86
2018-11-01T10:52:42.999Z,20.36
2018-11-01T10:55:13.051Z,20.49
2018-11-01T10:57:42.130Z,20.45
2018-11-01T11:00:17.286Z,20.45
2018-11-01T11:02:49.739Z,20.44
2018-11-01T11:05:19.930Z,20.44
2018-11-01T11:07:49.243Z,20.64
2018-11-01T11:10:18.463Z,20.91
2018-11-01T11:12:47.462Z,20.89
2018-11-01T11:15:16.378Z,20.86
2018-11-01T11:17:45.290Z,20.78
2018-11-01T11:20:16.732Z,20.75
2018-11-01T11:22:45.538Z,20.60
2018-11-01T11:25:14.597Z,20.69
2018-11-01T11:27:43.533Z,20.90
2018-11-01T11:30:13.257Z,20.84
2018-11-01T11:32:43.310Z,20.73
2018-11-01T11:35:12.626Z,20.62
2018-11-01T11:37:41.500Z,20.66
2018-11-01T11:40:11.746Z,20.44
2018-11-01T11:42:41.109Z,20.53
2018-11-01T11:45:11.422Z,20.41
2018-11-01T11:47:40.648Z,20.53
2018-11-01T11:50:11.015Z,20.63
2018-11-01T11:52:40.162Z,20.52
2018-11-01T11:55:09.635Z,20.51
2018-11-01T11:57:40.322Z,20.38
2018-11-01T12:00:13.649Z,20.30
2018-11-01T12:02:42.931Z,20.16
2018-11-01T12:05:11.862Z,20.20
2018-11-01T12:07:40.726Z,19.94
2018-11-01T12:10:11.662Z,19.86
2018-11-01T12:12:40.558Z,19.83
2018-11-01T12:15:09.735Z,19.91
2018-11-01T12:17:39.095Z,20.10
2018-11-01T12:20:09.941Z,20.33
2018-11-01T12:22:39.964Z,20.27
2018-11-01T12:25:09.410Z,20.17
2018-11-01T12:27:40.068Z,20.04
2018-11-01T12:30:10.634Z,19.99
2018-11-01T12:32:39.552Z,20.13
2018-11-01T12:35:10.477Z,19.95
2018-11-01T12:37:39.440Z,19.89
2018-11-01T12:40:10.124Z,19.83
2018-11-01T12:42:39.098Z,19.71
2018-11-01T12:45:09.440Z,19.65
2018-11-01T12:47:38.689Z,19.75
2018-11-01T12:50:09.838Z,19.59
2018-11-01T12:52:38.935Z,19.70
2018-11-01T12:55:07.981Z,19.54
2018-11-01T12:57:36.909Z,19.29
2018-11-01T13:00:06.645Z,19.10
2018-11-01T13:02:35.748Z,19.00
2018-11-01T13:05:04.861Z,19.11
2018-11-01T13:07:33.964Z,19.15
2018-11-01T13:10:04.113Z,19.22
2018-11-01T13:12:33.137Z,19.02
2018-11-01T13:15:02.088Z,18.93
2018-11-01T13:17:31.007Z,19.09
2018-11-01T13:19:59.886Z,19.20
2018-11-01T13:22:30.007Z,19.05
2018-11-01T13:24:58.934Z,19.19
2018-11-01T13:27:28.215Z,19.20
2018-11-01T13:29:58.406Z,19.15
2018-11-01T13:32:27.284Z,19.28
2018-11-01T13:34:57.711Z,19.25
2018-11-01T13:37:26.972Z,19.45
2018-11-01T13:39:56.006Z,19.29
2018-11-01T13:42:27.443Z,18.93
2018-11-01T13:44:56.351Z,18.80
2018-11-01T13:47:25.480Z,18.79
2018-11-01T13:49:54.555Z,18.77
2018-11-01T13:52:23.950Z,18.65
2018-11-01T13:54:52.911Z,18.57
2018-11-01T13:57:21.754Z,18.52
2018-11-01T13:59:50.627Z,18.37
2018-11-01T14:02:19.493Z,18.47
2018-11-01T14:04:54.942Z,18.33
2018-11-01T14:07:23.793Z,18.51
2018-11-01T14:09:52.747Z,18.43
2018-11-01T14:12:21.647Z,18.42
2018-11-01T14:14:50.835Z,18.31
2018-11-01T14:17:19.496Z,18.35
2018-11-01T14:19:48.390Z,18.36
2018-11-01T14:22:17.339Z,18.32
2018-11-01T14:24:46.303Z,18.20
2018-11-01T14:27:15.258Z,18.21
2018-11-01T14:29:44.120Z,18.13
2018-11-01T14:32:13.106Z,17.98
2018-11-01T14:34:41.983Z,17.88
2018-11-01T14:37:10.845Z,17.87
2018-11-01T14:39:39.723Z,17.84
2018-11-01T14:42:08.611Z,17.75
2018-11-01T14:44:37.653Z,17.70
2018-11-01T14:47:08.398Z,17.68
2018-11-01T14:49:37.315Z,17.65
2018-11-01T14:52:07.028Z,17.57
2018-11-01T14:54:36.332Z,17.56
2018-11-01T14:57:05.588Z,17.57
2018-11-01T14:59:35.465Z,17.45
2018-11-01T15:02:02.505Z,17.37
2018-11-01T15:04:31.424Z,17.37
2018-11-01T15:07:00.423Z,17.35
2018-11-01T15:09:29.299Z,17.28
2018-11-01T15:11:59.652Z,17.33
2018-11-01T15:14:28.627Z,17.14
2018-11-01T15:16:58.825Z,17.11
2018-11-01T15:19:27.709Z,17.08
2018-11-01T15:21:56.643Z,17.08
2018-11-01T15:24:25.644Z,17.00
2018-11-01T15:26:54.537Z,16.99
2018-11-01T15:29:23.430Z,16.96
2018-11-01T15:31:53.762Z,16.93
2018-11-01T15:34:22.654Z,16.90
2018-11-01T15:36:51.534Z,16.91
2018-11-01T15:39:20.499Z,16.95
2018-11-01T15:41:49.447Z,16.96
2018-11-01T15:44:18.310Z,16.96
2018-11-01T15:46:48.691Z,16.98
2018-11-01T15:49:17.586Z,16.94
2018-11-01T15:51:46.519Z,16.99
2018-11-01T15:54:15.498Z,16.99
2018-11-01T15:56:44.423Z,16.94
2018-11-01T15:59:13.402Z,16.89
2018-11-01T16:01:42.356Z,16.87
2018-11-01T16:04:11.265Z,16.83
2018-11-01T16:06:41.751Z,16.78
2018-11-01T16:09:12.364Z,16.75
2018-11-01T16:11:41.379Z,16.73
2018-11-01T16:14:13.371Z,16.73
2018-11-01T16:16:42.415Z,16.72
2018-11-01T16:19:11.704Z,16.73
2018-11-01T16:21:42.500Z,16.72
2018-11-01T16:24:16.908Z,16.74
2018-11-01T16:26:47.252Z,16.67
2018-11-01T16:29:16.130Z,16.68
2018-11-01T16:31:45.078Z,16.67
2018-11-01T16:34:14.043Z,16.76
2018-11-01T16:36:43.261Z,16.83
2018-11-01T16:39:12.903Z,16.84
2018-11-01T16:41:43.076Z,16.84
2018-11-01T16:44:12.259Z,16.93
2018-11-01T16:46:41.118Z,16.90
2018-11-01T16:49:10.809Z,16.85
2018-11-01T16:51:39.799Z,16.90
2018-11-01T16:54:10.031Z,16.92
2018-11-01T16:56:38.934Z,16.94
2018-11-01T16:59:07.866Z,16.94
2018-11-01T17:01:38.280Z,16.97
2018-11-01T17:04:07.783Z,16.96
2018-11-01T17:06:36.666Z,16.90
2018-11-01T17:09:11.108Z,16.87
2018-11-01T17:11:40.356Z,16.89
2018-11-01T17:14:09.276Z,16.83
2018-11-01T17:16:39.909Z,16.77
2018-11-01T17:19:09.434Z,16.74
2018-11-01T17:21:38.730Z,16.72
2018-11-01T17:24:07.960Z,16.73
2018-11-01T17:26:37.108Z,16.71
2018-11-01T17:29:06.291Z,16.73
2018-11-01T17:31:35.301Z,16.67
2018-11-01T17:34:04.345Z,16.66
2018-11-01T17:36:33.182Z,16.66
2018-11-01T17:39:02.288Z,16.62
2018-11-01T17:41:31.122Z,16.65
2018-11-01T17:44:00.080Z,16.71
2018-11-01T17:46:28.988Z,16.69
2018-11-01T17:48:57.932Z,16.72
2018-11-01T17:51:26.893Z,16.71
2018-11-01T17:53:57.115Z,16.71
2018-11-01T17:56:26.105Z,16.68
2018-11-01T17:58:55.135Z,16.68
2018-11-01T18:01:24.050Z,16.66
2018-11-01T18:03:52.931Z,16.66
2018-11-01T18:06:21.840Z,16.69
2018-11-01T18:08:50.814Z,16.66
2018-11-01T18:11:19.699Z,16.62
2018-11-01T18:13:48.683Z,16.59
2018-11-01T18:16:17.624Z,16.69
2018-11-01T18:18:46.679Z,16.70
2018-11-01T18:21:15.705Z,16.72
2018-11-01T18:23:44.863Z,16.68
2018-11-01T18:26:13.812Z,16.73
2018-11-01T18:28:42.719Z,16.76
2018-11-01T18:31:11.669Z,16.73
2018-11-01T18:33:40.543Z,16.78
2018-11-01T18:36:09.431Z,16.72
2018-11-01T18:38:38.390Z,16.74
2018-11-01T18:41:07.434Z,16.72
2018-11-01T18:43:36.390Z,16.71
2018-11-01T18:46:05.432Z,16.75
2018-11-01T18:48:34.591Z,16.76
2018-11-01T18:51:03.557Z,16.74
2018-11-01T18:53:32.485Z,16.76
2018-11-01T18:56:02.739Z,16.74
2018-11-01T18:58:31.651Z,16.81
2018-11-01T19:01:00.617Z,16.73
2018-11-01T19:03:30.126Z,16.84
2018-11-01T19:05:59.957Z,16.86
2018-11-01T19:08:29.227Z,16.89
2018-11-01T19:10:59.344Z,16.91
2018-11-01T19:13:28.313Z,16.94
2018-11-01T19:15:57.230Z,16.95
2018-11-01T19:18:26.242Z,17.01
2018-11-01T19:20:55.174Z,16.96
2018-11-01T19:23:24.127Z,16.92
2018-11-01T19:25:53.047Z,16.93
2018-11-01T19:28:21.967Z,16.90
2018-11-01T19:30:50.923Z,16.94
2018-11-01T19:33:19.855Z,16.98
2018-11-01T19:35:48.701Z,16.89
2018-11-01T19:38:19.219Z,16.78
2018-11-01T19:40:48.145Z,16.86
2018-11-01T19:43:17.041Z,16.85
2018-11-01T19:45:46.004Z,16.82
2018-11-01T19:48:15.008Z,16.83
2018-11-01T19:50:43.863Z,16.77
2018-11-01T19:53:12.825Z,16.78
2018-11-01T19:55:41.817Z,16.78
2018-11-01T19:58:10.790Z,16.72
2018-11-01T20:00:39.710Z,16.72
2018-11-01T20:03:08.595Z,16.72
2018-11-01T20:05:37.610Z,16.74
2018-11-01T20:08:07.046Z,16.74
2018-11-01T20:10:35.903Z,16.68
2018-11-01T20:13:04.856Z,16.72
2018-11-01T20:15:33.872Z,16.71
2018-11-01T20:18:02.771Z,16.68
2018-11-01T20:20:33.083Z,16.68
2018-11-01T20:23:02.010Z,16.68
2018-11-01T20:25:30.922Z,16.64
2018-11-01T20:27:59.932Z,16.63
2018-11-01T20:30:28.774Z,16.67
2018-11-01T20:32:57.727Z,16.70
2018-11-01T20:35:28.076Z,16.67
2018-11-01T20:37:57.069Z,16.57
2018-11-01T20:40:25.942Z,16.57
2018-11-01T20:42:56.228Z,16.67
2018-11-01T20:45:25.119Z,16.66
2018-11-01T20:47:53.975Z,16.70
2018-11-01T20:50:22.943Z,16.74
2018-11-01T20:52:51.725Z,16.74
2018-11-01T20:55:20.657Z,16.80
2018-11-01T20:57:49.708Z,16.78
2018-11-01T21:00:18.571Z,16.80
2018-11-01T21:02:47.471Z,16.83
2018-11-01T21:05:16.399Z,16.76
2018-11-01T21:07:45.403Z,16.77
2018-11-01T21:10:14.365Z,16.71
2018-11-01T21:12:43.302Z,16.79
2018-11-01T21:15:13.660Z,16.76
2018-11-01T21:17:42.615Z,16.75
2018-11-01T21:20:11.603Z,16.69
2018-11-01T21:22:40.737Z,16.68
2018-11-01T21:25:10.945Z,16.68
2018-11-01T21:27:39.924Z,16.71
2018-11-01T21:30:09.620Z,16.76
2018-11-01T21:32:38.510Z,16.72
2018-11-01T21:35:07.872Z,16.75
2018-11-01T21:37:36.740Z,16.68
2018-11-01T21:40:07.418Z,16.65
2018-11-01T21:42:36.513Z,16.65
2018-11-01T21:45:07.167Z,16.73
2018-11-01T21:47:36.247Z,16.79
2018-11-01T21:50:05.201Z,16.77
2018-11-01T21:52:34.070Z,16.69
2018-11-01T21:55:04.403Z,16.68
2018-11-01T21:57:33.342Z,16.68
2018-11-01T22:00:02.553Z,16.62
2018-11-01T22:02:31.679Z,16.63
2018-11-01T22:05:00.580Z,16.61
2018-11-01T22:07:29.511Z,16.57
2018-11-01T22:09:59.723Z,16.56
2018-11-01T22:12:28.606Z,16.55
2018-11-01T22:14:57.508Z,16.60
2018-11-01T22:17:26.462Z,16.59
2018-11-01T22:19:55.399Z,16.55
2018-11-01T22:22:24.374Z,16.47
2018-11-01T22:24:53.391Z,16.52
2018-11-01T22:27:22.296Z,16.53
2018-11-01T22:29:51.155Z,16.56
2018-11-01T22:32:21.374Z,16.60
2018-11-01T22:34:50.287Z,16.65
2018-11-01T22:37:24.544Z,16.69
2018-11-01T22:39:53.943Z,16.54
2018-11-01T22:42:22.786Z,16.50
2018-11-01T22:44:51.683Z,16.53
2018-11-01T22:47:20.684Z,16.51
2018-11-01T22:49:49.506Z,16.48
2018-11-01T22:52:18.365Z,16.54
2018-11-01T22:54:47.286Z,16.56
2018-11-01T22:57:16.164Z,16.56
2018-11-01T22:59:45.097Z,16.59
2018-11-01T23:02:14.067Z,16.61
2018-11-01T23:04:42.923Z,16.57
2018-11-01T23:07:11.731Z,16.61
2018-11-01T23:09:40.583Z,16.63
2018-11-01T23:12:09.419Z,16.56
2018-11-01T23:14:38.375Z,16.61
2018-11-01T23:17:07.286Z,16.60
2018-11-01T23:19:36.090Z,16.52
2018-11-01T23:22:04.933Z,16.54
2018-11-01T23:24:33.775Z,16.61
2018-11-01T23:27:02.658Z,16.55
2018-11-01T23:29:31.563Z,16.50
2018-11-01T23:32:00.469Z,16.52
2018-11-01T23:34:29.334Z,16.49
2018-11-01T23:37:03.303Z,16.55
2018-11-01T23:39:37.202Z,16.61
2018-11-01T23:42:11.347Z,16.63
2018-11-01T23:44:45.343Z,16.61
2018-11-01T23:47:19.276Z,16.64
2018-11-01T23:49:53.342Z,16.70
2018-11-01T23:52:23.230Z,16.63
2018-11-01T23:54:52.494Z,16.63
2018-11-01T23:57:21.366Z,16.65
2018-11-01T23:59:50.475Z,16.58
